x

9439040 - Astoria, Or (asto3) Weather Station

8:54 - Sat 13th Feb 2016 All times are PST. -8 hours from GMT.

  • Wind
    11mph, 16mph gusts
  • Sea Temp 46°f
  • Aire Temp 52°f
  • Sea Pressure 1020.5mb
  • 9439040 - Astoria, Or
  • 9439040 - Astoria, Or

More Historic Weather Station data

Upgrade to MSW Pro to gain access to the past 30 days of data for over 8000 Wavebouys and Weather Stations around the globe.

Join Pro

Comparision Forecast

View Surf forecast
   
sáb 02/13 8:54 11 16 mph 1020.5mb 46f 52f
8:48 14 21 mph 1020.5mb - -
8:42 16 21 mph 1020.3mb 46f 52f
8:36 10 15 mph 1020.2mb 46f 51f
8:30 15 24 mph 1020mb 46f 52f
8:24 14 18 mph 1020.2mb 46f 51f
8:18 17 24 mph 1020.3mb 46f 51f
8:12 18 25 mph 1020.4mb 46f 51f
8:06 16 28 mph 1020.3mb 46f 51f
8:00 18 24 mph 1020.2mb 46f 51f
7:54 16 29 mph 1020mb 46f 51f
7:48 20 28 mph 1019.9mb 46f 51f
7:42 15 24 mph 1020mb 46f 51f
7:36 16 23 mph 1020mb 46f 51f
7:30 15 23 mph 1019.9mb 46f 51f
7:24 15 26 mph 1019.8mb 46f 51f
7:18 16 24 mph 1019.7mb 46f 51f
7:12 15 28 mph 1019.6mb 46f 51f
7:06 13 22 mph 1019.4mb 46f 51f
7:00  -  mph 1019.5mb 46f 51f
6:54  -  mph 1019.6mb 46f 51f
6:48 13 20 mph 1019.7mb 46f 51f
6:42 11 18 mph 1019.8mb 46f 51f
6:36 11 22 mph 1019.8mb 46f 51f
6:30 10 17 mph 1019.6mb 46f 49f
6:24 9 18 mph 1019.6mb 46f 50f
6:18 10 21 mph 1019.6mb 46f 49f
6:12 9 16 mph 1019.6mb 46f 47f
6:06 6 11 mph 1019.7mb 46f 47f
6:00  -  mph 1019.9mb 46f 47f
5:54  -  mph 1019.9mb 46f 47f
5:48 2 8 mph - 46f 47f
5:42 3 11 mph - 46f 47f
5:36 5 8 mph - 46f 47f
5:30 5 7 mph 1019.7mb 46f -
5:24 5 11 mph 1020mb 46f -
5:18  -  mph 1020.2mb 46f 48f
5:12  -  mph 1020.1mb 46f 47f
5:06  -  mph 1019.9mb 46f 47f
5:00 6 9 mph 1020mb 46f 47f
4:54 2 6 mph 1020.2mb 46f 47f
4:48 3 6 mph 1020.2mb 46f 47f
4:42 3 9 mph 1020.3mb 46f 47f
4:36 3 6 mph 1020.4mb 46f 47f
4:30 3 8 mph 1020.5mb 46f 47f
4:24 3 6 mph 1020.7mb 46f 47f
4:18 3 5 mph 1021mb 46f 47f
4:12 2 5 mph 1021.1mb 46f 47f
4:06 2 5 mph 1021mb 46f 47f
4:00  -  mph 1021.1mb 46f 47f
3:54  -  mph 1021.3mb 46f 47f
3:48 2 5 mph 1021.2mb 46f 47f
3:42 2 5 mph 1021.4mb 46f 47f
3:36 2 5 mph 1021.3mb 46f 47f
3:30 2 7 mph 1021.4mb - -
3:24 3 8 mph 1021.4mb - -
3:18  -  mph 1021.5mb 46f 47f
3:12  -  mph 1021.6mb 46f 47f
3:06  -  mph 1021.6mb 46f 48f
3:00  -  mph 1021.5mb 46f 48f
2:54  -  mph 1021.5mb 46f 48f
2:48 10 17 mph 1021.5mb 46f 49f
2:42 11 17 mph 1021.7mb 46f 48f
2:36 7 10 mph 1021.9mb 46f 48f
2:30 7 8 mph 1022.1mb 46f 47f
2:24 3 6 mph 1022mb 46f 47f
2:18 3 6 mph 1022.2mb 46f 47f
2:12  -  5 mph 1022.2mb 46f 47f
2:06 3 6 mph 1022.2mb 46f 47f
2:00  -  mph 1022.3mb 46f 47f
1:54  -  mph 1022.4mb 46f 47f
1:48 3 6 mph 1022.6mb 46f 48f
1:42 5 9 mph 1022.6mb 46f 48f
1:36 6 8 mph 1022.8mb 46f 48f
1:30 5 10 mph 1022.7mb 46f 48f
1:24 3 5 mph 1022.7mb 46f 48f
1:18 3 5 mph 1022.8mb 46f 49f
1:12 5 9 mph 1022.7mb 46f 49f
1:06 7 14 mph 1022.7mb 46f 49f
1:00 11 16 mph 1022.7mb 46f 49f
12:54 8 11 mph 1022.9mb 46f 49f
12:48 6 9 mph 1023mb 46f 49f
12:42 5 8 mph 1023.2mb 46f 49f
12:36 3 6 mph 1023.3mb 46f 49f
12:30 5 8 mph 1023.4mb 46f 49f
12:24 6 9 mph 1023.5mb 46f 49f
12:18 8 9 mph 1023.7mb 46f 50f
12:12 8 15 mph 1023.8mb 46f 50f
12:06 7 14 mph 1024mb 46f 50f
12:00 8 11 mph 1024mb 46f 50f
11:54 6 13 mph 1024.1mb 46f 50f
11:48 3 7 mph 1024.3mb 46f 49f
11:42 3 6 mph 1024.4mb 46f 49f
11:36 3 8 mph 1024.5mb 46f 49f
11:30 5 8 mph 1024.5mb 46f 49f
11:24 3 6 mph 1024.6mb 46f 49f
11:18 3 6 mph 1024.8mb 46f 49f
11:12 3 5 mph 1024.9mb 46f 49f
11:06 5 6 mph 1025mb 46f 49f
11:00 5 6 mph 1025mb 46f 49f
10:54 3 10 mph 1025.1mb 46f 49f
10:48 5 6 mph 1025.2mb 46f 49f
10:42 5 6 mph 1025.4mb 46f 49f
10:36 5 7 mph 1025.4mb 46f 49f
10:30 5 6 mph 1025.5mb 46f 49f
10:24 5 6 mph 1025.4mb 46f 49f
10:18 3 7 mph 1025.5mb 46f 49f
10:12 2 6 mph 1025.5mb 46f 49f
10:06 3 7 mph 1025.6mb 46f 49f
10:00 5 8 mph 1025.7mb 46f 49f
9:54 5 7 mph 1025.8mb 46f 48f
9:48 5 6 mph 1025.9mb 46f 48f
9:42 5 6 mph 1026mb 46f 47f
9:36 5 7 mph 1026.2mb 46f 47f
9:30 5 7 mph 1026.2mb 46f 47f
9:24 5 7 mph 1026.3mb 46f 47f
9:18 6 7 mph 1026.3mb 46f 47f
9:12 5 6 mph 1026.3mb 46f 47f
9:06 5 6 mph 1026.4mb 46f 47f
9:00 6 7 mph 1026.4mb 46f 47f
8:54 5 6 mph 1026.4mb 46f 47f
8:48 5 6 mph 1026.4mb 46f 47f
8:42 5 7 mph 1026.4mb 46f 47f
8:36 6 7 mph 1026.3mb 46f 47f
8:30 6 7 mph 1026.3mb 46f 47f
8:24 6 7 mph 1026.2mb 46f 47f
8:18 6 7 mph 1026.3mb 46f 47f
8:12 6 7 mph 1026.3mb 46f 47f
8:06 5 6 mph 1026.2mb 46f 46f
8:00 3 5 mph 1026.1mb 46f 46f
7:54 3 6 mph 1026.1mb 46f 46f
7:48 3 6 mph 1026.1mb 46f 46f
7:42 5 7 mph 1026mb 46f 46f
7:36 5 6 mph 1026.1mb 46f 46f
7:30 5 7 mph 1026.2mb 46f 46f
7:24 6 8 mph 1026.3mb 46f 46f
7:18 6 7 mph 1026.4mb 45f 46f
7:12 6 7 mph 1026.5mb 45f 46f
7:06 6 8 mph 1026.4mb 45f 46f
7:00 5 6 mph 1026.4mb 45f 46f
6:54 7 8 mph 1026.5mb 45f 47f
6:48 6 8 mph 1026.4mb 45f 48f
6:42 6 8 mph 1026.5mb 45f 48f
6:36 5 8 mph 1026.5mb 45f 49f
6:30 7 9 mph 1026.4mb 45f 49f
6:24 7 8 mph 1026.4mb 45f 49f
6:18 7 9 mph 1026.5mb 45f 49f
6:12 7 10 mph 1026.7mb 45f 49f
6:06 7 10 mph 1026.9mb 45f 49f
6:00 6 10 mph 1026.9mb 45f 49f
5:54 8 10 mph 1026.8mb 45f 49f
5:48 7 10 mph 1026.9mb 45f 49f
5:42 7 10 mph 1026.8mb 45f 49f
5:36 7 10 mph 1026.8mb 45f 48f
5:30 7 9 mph 1026.8mb 46f 48f
5:24 7 10 mph 1026.7mb 46f 48f
5:18 6 9 mph 1026.7mb 46f 48f
5:12 5 8 mph 1026.6mb 46f 48f
5:06 5 7 mph 1026.7mb 46f 48f
5:00 5 6 mph 1026.6mb 46f 48f
4:54 5 8 mph 1026.6mb 46f 48f
4:48 6 8 mph 1026.5mb 46f 48f
4:42 6 8 mph 1026.3mb 46f 48f
4:36 6 9 mph 1026.3mb 46f 48f
4:30 7 11 mph 1026.2mb 46f 48f
4:24 7 10 mph 1026mb 46f 48f
4:18 7 9 mph 1026mb 46f 48f
4:12 6 9 mph 1026mb 46f 48f
4:06 7 9 mph 1026.1mb 46f 48f
4:00 7 9 mph 1026.2mb 46f 48f
3:54 7 9 mph 1026.2mb 46f 49f
3:48 6 8 mph 1026.1mb 46f 49f
3:42 6 10 mph 1026.2mb 46f 49f
3:36 7 11 mph 1026.2mb 46f 49f
3:30 9 13 mph 1026.2mb 46f 49f
3:24 7 9 mph 1026.1mb 46f 49f
3:18 7 11 mph 1025.9mb 46f 49f
3:12 8 13 mph 1025.9mb 46f 49f
3:06 8 13 mph 1025.9mb 46f 49f
3:00 10 15 mph 1026mb 46f 49f
2:54 9 14 mph 1025.9mb 46f 50f
2:48 7 10 mph 1025.9mb 46f 49f
2:42 8 10 mph 1025.7mb 46f 50f
2:36 7 10 mph 1025.7mb 46f 50f
2:30 9 13 mph 1025.7mb 46f 50f
2:24 10 15 mph 1025.7mb 46f 50f
2:18 8 13 mph 1025.6mb 46f 50f
2:12 8 14 mph 1025.6mb 46f 50f
2:06 11 16 mph 1025.5mb 46f 50f
2:00 11 16 mph 1025.4mb 46f 50f
1:54 10 21 mph 1025.3mb 46f 50f
1:48  -  mph 1025.2mb 46f 50f
1:42  -  mph 1025.1mb 46f 51f
1:36  -  mph 1025mb 46f 51f
1:30 14 18 mph 1024.9mb - 51f
1:24 14 18 mph 1024.9mb - 51f
1:18 14 21 mph 1024.9mb 46f 51f
1:12 14 18 mph 1024.9mb 46f 51f
1:06 10 20 mph 1024.8mb 46f 50f
1:00 11 16 mph 1024.8mb 46f 50f
12:54 11 15 mph 1024.8mb 46f 50f
12:48 9 13 mph 1024.8mb 46f 49f
12:42 8 14 mph 1024.8mb 46f 49f
12:36 11 16 mph 1024.8mb 46f 49f
12:30 9 13 mph 1024.7mb 46f 49f
12:24 9 15 mph 1024.6mb 46f 49f
12:18 13 17 mph 1024.7mb 46f 49f
12:12 15 21 mph 1024.7mb 46f 49f
12:06 18 31 mph 1024.7mb 46f 50f
12:00 17 23 mph 1024.6mb 46f 51f
vie 02/12 11:54 13 23 mph 1024.4mb 46f 51f
11:48 15 25 mph 1024.3mb 46f 51f
11:42 16 23 mph 1024.3mb 46f 51f
11:36 14 28 mph 1024.2mb 46f 51f
11:30 16 22 mph 1024.2mb 46f 51f
11:24 16 23 mph 1024.1mb 46f 51f
11:18 14 20 mph 1024.1mb 46f 51f
11:12 10 15 mph 1024.1mb 46f 51f
11:06 14 17 mph 1024mb 46f 51f
11:00 10 16 mph 1024.1mb 46f 51f
10:54 9 13 mph 1024.1mb 46f 51f
10:48 10 15 mph 1024.2mb 46f 51f
10:42 6 10 mph 1024.2mb 46f 51f
10:36 8 13 mph 1024.2mb 46f 51f
10:30 8 13 mph 1024.1mb 46f 51f
10:24 9 13 mph 1024.1mb 46f 51f
10:18 9 11 mph 1024.1mb 45f 51f
10:12 9 13 mph 1024.1mb 45f 51f
10:06 9 14 mph 1024.1mb 45f 51f
10:00 9 14 mph 1024.1mb 45f 51f
9:48 9 14 mph 1024.1mb 45f 51f
9:42 7 13 mph 1024.1mb 45f 51f
9:36 9 20 mph 1024.1mb 45f 51f
9:30 10 14 mph 1024.1mb 45f 51f
9:18 9 14 mph 1024mb 45f 51f
9:12 8 15 mph 1024mb 45f 51f
9:00 8 11 mph 1023.9mb 45f 51f
8:54 6 14 mph 1023.8mb 45f 51f
8:48 9 14 mph 1023.8mb 45f 51f
8:42 8 11 mph 1023.8mb 45f 51f
8:36 9 14 mph 1023.8mb 45f 51f
8:30 9 13 mph 1023.8mb 45f 51f
8:24 9 16 mph 1023.7mb 45f 51f
8:18 14 16 mph 1023.6mb 45f 51f
8:12 9 13 mph 1023.6mb 45f 51f
8:06 9 11 mph 1023.6mb 45f 51f
8:00 7 10 mph 1023.5mb 45f 51f
7:54 8 16 mph 1023.5mb 45f 51f
7:48 9 11 mph 1023.6mb 45f 51f
7:42 5 9 mph 1023.6mb 45f 51f
7:36 6 9 mph 1023.6mb 46f 51f
7:30 9 15 mph 1023.6mb 46f 51f
7:24 9 11 mph 1023.6mb 46f 51f
7:18  -  mph 1023.5mb 46f 51f
7:12  -  mph 1023.6mb 46f 51f
7:06  -  mph 1023.5mb 45f 51f
7:00  -  mph 1023.5mb 45f 51f
6:54  -  mph 1023.5mb 46f 51f
6:48 8 11 mph 1023.5mb 46f 51f
6:42 9 13 mph 1023.5mb 46f 51f
6:36 9 13 mph 1023.4mb 46f 51f
6:30 6 9 mph 1023.4mb 45f -
6:24 7 14 mph 1023.3mb 46f -
6:18  -  mph 1023.2mb 46f 51f
6:12  -  mph 1023.2mb 46f 51f
6:06  -  mph 1023.1mb 46f 51f
6:00  -  mph 1023mb 46f 51f
5:54  -  mph 1022.9mb 46f 51f
5:48 8 13 mph 1022.9mb 46f 51f
5:42 10 17 mph 1022.8mb 46f 51f
5:36 10 16 mph 1022.8mb 46f 52f
5:30 10 16 mph 1022.7mb 46f 51f
5:24 14 16 mph 1022.6mb 46f 52f
5:18 9 17 mph 1022.5mb 45f 52f
5:12 13 16 mph 1022.5mb 45f 52f
5:06 13 17 mph 1022.5mb 46f 52f
5:00  -  mph 1022.5mb 46f 52f
4:54  -  mph 1022.5mb 46f 52f
4:48 10 18 mph 1022.5mb 46f 52f
4:42 10 16 mph 1022.6mb 46f 52f
4:36 10 15 mph 1022.6mb 46f 52f
4:30  -  mph 1022.6mb 46f 53f
4:24  -  mph 1022.6mb 46f 52f
4:18  -  mph 1022.6mb 46f 53f
4:12  -  mph 1022.5mb 46f 52f
4:06  -  mph 1022.6mb 46f 52f
4:00  -  mph 1022.6mb 46f 52f
3:54  -  mph 1022.6mb 46f 52f
3:48 11 16 mph - 46f -
3:42 11 16 mph - 46f -
3:36 13 16 mph - 46f -
3:30  -  mph 1022.2mb 46f 53f
3:24  -  mph 1022.2mb 46f 53f
3:18 10 15 mph 1022.1mb 46f 53f
3:12 11 14 mph 1022.2mb 46f 53f
3:06 11 16 mph 1022.1mb 46f 53f
3:00  -  mph 1022mb 46f 53f
2:54  -  mph 1022.1mb 46f 53f
2:48 11 15 mph 1022mb 46f 54f
2:42 9 16 mph 1022mb 46f 53f
2:36 10 15 mph 1022mb 46f 53f
2:30 10 20 mph 1022.1mb - -
2:24 14 17 mph 1022mb - -
2:18 15 21 mph 1022mb 46f 54f
2:12 15 20 mph 1022mb 46f 54f
2:06 9 15 mph 1022mb 46f 54f
2:00 10 17 mph 1022mb 46f 54f
1:54 10 15 mph 1022mb 46f 54f
1:48 13 22 mph 1022mb 46f 54f
1:42 14 22 mph 1021.9mb 46f 54f
1:36 13 17 mph 1022mb 46f 54f
1:30 11 16 mph 1021.9mb 46f 54f
1:24 14 18 mph 1021.9mb 46f 54f
1:18 11 16 mph 1021.8mb 46f 53f
1:12 10 15 mph 1021.8mb 46f 54f
1:06 14 18 mph 1021.8mb 46f 54f
1:00 16 21 mph 1021.8mb 46f 54f
12:54 11 20 mph 1021.8mb 46f 54f
12:48 14 17 mph 1021.8mb 46f 54f
12:42 13 18 mph 1021.8mb 46f 54f
12:36 15 20 mph 1021.8mb 46f 54f
12:30 14 18 mph 1021.7mb 46f 54f
12:24 15 17 mph 1021.6mb 46f 54f
12:18 15 18 mph 1021.6mb 46f 54f
12:12 11 16 mph 1021.6mb 46f 54f
12:06 13 16 mph 1021.6mb 46f 54f
12:00 9 20 mph 1021.6mb 46f 54f
11:54 11 16 mph 1021.6mb 46f 54f
11:48 11 18 mph 1021.6mb 46f 54f
11:42 14 18 mph 1021.7mb 46f 54f
11:36 11 18 mph 1021.6mb 46f 54f
11:30 13 18 mph 1021.6mb 46f 54f
11:24 10 15 mph 1021.7mb 46f 54f
11:18 10 15 mph 1021.7mb 46f 54f
11:12 9 18 mph 1021.7mb 46f 54f
11:06 14 17 mph 1021.7mb 46f 54f
11:00 13 17 mph 1021.7mb 46f 54f
10:54 10 14 mph 1021.7mb 46f 53f
10:48 8 15 mph 1021.5mb 46f 53f
10:42 10 15 mph 1021.6mb 45f 53f
10:36 9 14 mph 1021.5mb 45f 53f
10:30 2 3 mph 1021.5mb 45f 52f
10:24 2 9 mph 1021.6mb 45f 51f
10:18 7 10 mph 1021.4mb 45f 53f
10:12 3 6 mph 1021.3mb 45f 53f
10:06 2 6 mph 1021.2mb 45f 52f
10:00  -  5 mph 1021.3mb 45f 52f
9:54 2 3 mph 1021.2mb 45f 51f
9:48  -  2 mph 1021.1mb 45f 51f
9:42 1 3 mph 1021mb 45f 51f
9:36 1 2 mph 1020.9mb 45f 52f
9:30  -  2 mph 1020.8mb 45f 54f
9:24  -  3 mph 1020.8mb 45f 53f
9:18 2 5 mph 1020.8mb 45f 52f
9:12 3 8 mph 1020.5mb 45f 52f
9:06 6 11 mph 1020.7mb 45f 52f
9:00 5 7 mph 1020.8mb 45f 52f
8:54 3 6 mph 1020.7mb 45f 51f
8:48 3 5 mph 1020.7mb 45f 51f
8:42 2 5 mph 1020.6mb 45f 51f
8:36  -  8 mph 1020.6mb 45f 51f
8:30 5 8 mph 1020.7mb 45f 51f
8:24 9 14 mph 1020.9mb 45f 52f
8:18 7 11 mph 1021mb 45f 51f
8:12 8 11 mph 1020.9mb 45f 51f
8:06 10 14 mph 1021mb 45f 51f
8:00 8 14 mph 1020.8mb 45f 51f
7:54 10 15 mph 1020.5mb 45f 51f
7:48 16 29 mph 1020.4mb 45f 51f
7:42 23 31 mph 1020.4mb 45f 52f
7:36 5 6 mph 1019.7mb 45f 54f
7:30 6 9 mph 1019.6mb 45f 53f
7:24 8 11 mph 1019.5mb 45f 53f
7:18 5 7 mph 1019.4mb 45f 53f
7:12 5 9 mph 1019.4mb 45f 52f
7:06 6 9 mph 1019.5mb 45f 52f
7:00 5 7 mph 1019.5mb 45f 52f
6:54 6 9 mph 1019.4mb 45f 52f
6:48 5 7 mph 1019.3mb 45f 50f
6:42 6 9 mph 1019.3mb 45f 50f
6:36 5 10 mph 1019.4mb 45f 50f
6:30 5 6 mph 1019.3mb 45f 50f
6:24 5 6 mph 1019.3mb 45f 50f
6:18 2 7 mph 1019.3mb 45f 50f
6:12 5 10 mph 1019.4mb 45f 50f
6:06 6 9 mph 1019.3mb 45f 50f
6:00 7 13 mph 1019.3mb 45f 50f
5:54 6 10 mph 1019.3mb 45f 50f
5:48 8 10 mph 1019.3mb 45f 51f
5:42 2 7 mph 1019.4mb 45f 51f
5:36 3 5 mph 1019.5mb 45f 51f
5:30 1 3 mph 1019.5mb 45f 51f
5:24 2
mph
1019.4mb 45f 50f
5:18  -  2 mph 1019.4mb 45f 51f
5:12  -  3 mph 1019.3mb 45f 51f
5:06 1 2 mph 1019.3mb 45f 50f
5:00 1 2 mph 1019.3mb 45f 50f
4:54 1 3 mph 1019.4mb 45f 49f
4:48 2
mph
1019.4mb 45f 50f
4:42 1 2 mph 1019.4mb 45f 50f
4:36  -  3 mph 1019.4mb 45f 50f
4:30 3 5 mph 1019.4mb 45f 50f
4:24 3 6 mph 1019.3mb 45f 50f
4:18 5 7 mph 1019.3mb 45f 50f
4:12 6 8 mph 1019.3mb 45f 51f
4:06 7 13 mph 1019.4mb 45f 50f
4:00 6 8 mph 1019.5mb 45f 51f
3:54 5 6 mph 1019.6mb 45f 50f
3:48 5 6 mph 1019.8mb 45f 51f
3:42 7 8 mph 1019.8mb 45f 50f
3:36 6 7 mph 1019.7mb 45f 51f
3:30 3 6 mph 1019.7mb 45f 50f
3:24 3 6 mph 1019.7mb 45f 51f
3:18  -  2 mph 1019.6mb 45f 51f
3:12 1 2 mph 1019.6mb 45f 51f
3:06  -  1 mph 1019.6mb 45f 52f
3:00 2 5 mph 1019.6mb 45f 52f
2:54 2 7 mph 1019.6mb 45f 51f
2:48 3 5 mph 1019.7mb 45f 51f
2:42 1 7 mph 1019.9mb 45f 50f
2:36 5 10 mph 1019.8mb 45f 51f
2:30 7 13 mph 1019.7mb 45f 51f
2:24 8 10 mph 1019.7mb 45f 50f
2:18  -  mph 1019.6mb 45f 50f
2:12  -  mph 1019.5mb 45f 50f
2:06  -  mph 1019.3mb 45f 50f
2:00  -  mph - - 49f
1:54  -  mph - - 50f
1:48  -  mph 1019.2mb 45f 50f
1:42  -  mph 1019.2mb 45f 50f
1:36  -  mph 1019.3mb 45f 50f
1:30 6 8 mph 1019.3mb 45f 51f
1:24  -  5 mph 1019.3mb 45f 50f
1:18 1 3 mph 1019.4mb 45f 50f
1:12 2 5 mph 1019.5mb 45f 51f
1:06 3 6 mph 1019.6mb 45f 51f
1:00 5 6 mph 1019.5mb 45f 51f
12:54 3 5 mph 1019.3mb 45f 51f
12:48 2 6 mph 1019.3mb 45f 51f
12:42 3 5 mph 1019.4mb 45f 51f
12:36 3 6 mph 1019.5mb 45f 51f
12:30 3 6 mph 1019.5mb 45f 51f
12:24  -  2 mph 1019.5mb 45f 50f
12:18  -  3 mph 1019.5mb 45f 51f
12:12  -  1 mph 1019.6mb 45f 51f
12:06  -  1 mph 1019.6mb 45f 51f
12:00 3 7 mph 1019.6mb 45f 51f
jue 02/11 11:54 3 7 mph 1019.5mb 45f 51f
11:48  -  2 mph 1019.5mb 45f 51f
11:42  -  mph 1019.4mb 45f 51f
11:36  -  1 mph 1019.4mb 45f 51f
11:30  -  2 mph 1019.4mb 45f 51f
11:24 1 2 mph 1019.4mb 45f 51f
11:18  -  mph 1019.2mb 45f 51f
11:12  -  mph 1019.2mb 45f 51f
11:06  -  1 mph 1019.2mb 45f 51f
11:00  -  3 mph 1019.2mb 45f 51f
10:54 2 6 mph 1019.2mb 45f 50f
10:48 5
mph
1019.3mb 45f 51f
10:42 3 5 mph 1019.1mb 45f 51f
10:36 3 7 mph 1019mb 45f 51f
10:30 5 10 mph 1018.9mb 45f 51f
10:24 3 6 mph 1018.7mb 45f 51f
10:18 6 8 mph 1018.6mb 45f 50f
10:12 6 10 mph 1018.5mb 45f 50f
10:06 3 8 mph 1018.4mb 45f 50f
10:00 5 8 mph 1018.4mb 45f 50f
9:54 5 7 mph 1018.5mb 45f 50f
9:48 5 8 mph 1018.5mb 45f 50f
9:42 5 8 mph 1018.6mb 45f 50f
9:36 6 9 mph 1018.6mb 45f 50f
9:24 6 7 mph 1018.6mb 45f 49f
9:18 5 7 mph 1018.5mb 45f 49f
9:12 5 7 mph 1018.5mb 45f 49f
9:00 2 5 mph 1018.6mb 45f 49f
8:54 2 3 mph 1018.6mb 45f 49f
8:48 2 7 mph 1018.7mb 45f 50f
8:42 3 6 mph 1018.7mb 45f 51f
8:36 1 5 mph 1018.7mb 45f 50f
8:30 3 9 mph 1018.7mb 45f 51f
8:24 6 9 mph 1018.7mb 45f 49f
8:18 7 10 mph 1018.8mb 45f 50f
8:12 6 9 mph 1018.9mb 45f 50f
8:06 3 8 mph 1019mb 45f 50f
8:00 5 7 mph 1019.1mb 45f 50f
7:54 5 10 mph 1019.2mb 45f 50f
7:48 6 9 mph 1019.2mb 45f 50f
7:42 6 8 mph 1019.2mb 45f 50f
7:36 3 7 mph 1019.1mb 45f 50f
7:30 3 7 mph 1019.1mb 45f 50f
7:24 3 7 mph 1019.2mb 45f 51f
7:18  -  mph 1019.3mb 45f 52f
7:12  -  mph 1019.3mb 45f 52f
7:06  -  mph 1019.3mb 45f 51f
7:00  -  mph 1019.3mb 45f 51f
6:54  -  mph 1019.3mb 45f 50f
6:48 1 6 mph - 45f 51f
6:42 3 8 mph - 45f 51f
6:36 3 8 mph - 45f 50f
6:30 5 8 mph 1019.5mb 45f -
6:24 6 7 mph 1019.5mb 45f -
6:18  -  mph 1019.6mb 45f -
6:12  -  mph 1019.6mb 45f -
6:06  -  mph 1019.6mb 45f -
6:00  -  mph - 45f 52f
5:54  -  mph - 45f 51f
5:48  -  mph 1019.5mb 45f 51f
5:42  -  mph 1019.5mb 45f 51f
5:36  -  mph 1019.4mb 45f 51f
5:30  -  mph 1019.5mb - -
5:24  -  mph 1019.4mb - -
5:18  -  mph 1019.4mb 45f -
5:12  -  mph 1019.4mb 45f -
5:06  -  mph 1019.3mb 45f -
5:00  -  mph 1019.3mb 45f 51f
4:54  -  mph 1019mb 45f 52f
4:48 3 8 mph 1019mb 45f 51f
4:42 2 8 mph 1019mb 45f 51f
4:36  -  6 mph 1019mb 45f 51f
4:30 2 5 mph 1019mb 45f 51f
4:24 1 8 mph 1019mb 45f 51f
4:18  -  mph 1019.1mb 45f 52f
4:12  -  mph 1019.1mb 45f 52f
4:06  -  mph 1019.1mb 45f 51f
4:00 6 10 mph 1019.1mb 45f 52f
3:54 5 9 mph 1019.1mb 45f 51f
3:48 3 9 mph 1019.1mb 45f -
3:42 3 7 mph 1019.2mb 45f -
3:36 3 8 mph 1019.2mb 45f -
3:30  -  mph 1019.2mb 45f -
3:24  -  mph 1019.1mb 45f -
3:18  -  mph 1019mb 45f 51f
3:12  -  mph 1018.9mb 45f 51f
3:06  -  mph 1018.9mb 45f 51f
3:00 6 8 mph 1018.8mb 45f 51f
2:54 3 10 mph 1018.7mb 45f 51f
2:48 6 8 mph 1018.6mb 45f -
2:42 3 11 mph 1018.5mb 45f -
2:36 5 13 mph 1018.5mb 45f -
2:30 5 14 mph 1018.5mb - 53f
2:24 3 8 mph 1018.4mb - 52f
2:18  -  mph 1018.6mb 45f 52f
2:12  -  mph 1018.6mb 45f 52f
2:06  -  mph 1018.7mb 45f 52f
2:00  -  mph 1018.7mb 45f 53f
1:54  -  mph 1018.7mb 45f 52f
1:48  -  mph - 45f 52f
1:42  -  mph - 45f 53f
1:36  -  mph - 45f 53f
1:30 6 10 mph 1018.8mb 45f 52f
1:24 7 14 mph 1018.8mb 45f 52f
1:18 6 10 mph 1019mb - -
1:12 7 11 mph 1019mb - -
1:06 7 11 mph 1019.1mb - -
1:00 5 8 mph 1019.2mb 45f 52f
12:54 2 6 mph 1019.4mb 45f 53f
12:48 3 8 mph 1019.5mb 45f 53f
12:42 2 8 mph 1019.4mb 45f 52f
12:36 3 8 mph 1019.5mb 45f 52f
12:30 3 9 mph 1019.5mb 45f 52f
12:24 6 8 mph 1019.5mb 45f 52f
12:18 6 14 mph 1019.5mb 45f 52f
12:12 7 9 mph 1019.6mb 45f 52f
12:06 6 10 mph 1019.6mb 45f 53f
12:00 7 10 mph 1019.7mb 45f 52f
11:54 7 10 mph 1019.8mb 45f 52f
11:48 5 10 mph 1019.7mb 45f 53f
11:42 3 6 mph 1019.7mb 45f 53f
11:36 5 7 mph 1019.8mb 45f 53f
11:30 2 9 mph 1019.8mb 45f 53f
11:24 3 11 mph 1019.9mb 45f 53f
11:18 6 8 mph 1019.8mb 45f 51f
11:12 6 8 mph 1019.8mb 45f 51f
11:06 5 8 mph 1019.7mb 45f 51f
11:00 5 7 mph 1019.6mb 45f 51f
10:54 3 9 mph 1019.7mb 45f 52f
10:48 5 8 mph 1019.7mb 45f 53f
10:42 1 8 mph 1019.7mb 45f 51f
10:36 5 20 mph 1019.6mb 45f 53f
10:30 5 7 mph 1019.5mb 45f 51f
10:24 3 8 mph 1019.5mb 45f 51f
10:18 5 7 mph 1019.5mb 45f 51f
10:12 3 7 mph 1019.4mb 45f 50f
10:06 5 9 mph 1019.6mb 45f 51f
10:00 5 10 mph 1019.6mb 45f 51f
9:54 5 16 mph 1019.5mb 45f 51f
9:48 8 13 mph 1019.4mb 45f 51f
9:42 8 16 mph 1019.4mb 45f 51f
9:36 10 16 mph 1019.3mb 45f 51f
9:30 9 16 mph 1019.4mb 45f 51f
9:24 9 16 mph 1019.4mb 45f 51f
9:18 11 17 mph 1019.3mb 45f 51f
9:12 11 16 mph 1019.3mb 45f 50f
9:06 10 18 mph 1019.2mb 45f 50f
9:00 13 17 mph 1019.2mb 45f 50f
8:54 7 13 mph 1019.1mb 45f 50f
8:48 10 14 mph 1019.1mb 45f 50f
8:42 9 11 mph 1019.1mb 45f 50f
8:36 8 14 mph 1019.2mb 45f 49f
8:30 10 14 mph 1019.2mb 45f 49f
8:24 8 14 mph 1019.1mb 45f 49f
8:18 13 16 mph 1019.1mb 45f 49f
8:12 10 14 mph 1019.2mb 45f 49f
8:06 7 13 mph 1019.2mb 45f 49f
8:00 6 9 mph 1019.3mb 45f -
7:54 5 7 mph 1019.3mb 45f -
7:48 3 6 mph 1019.5mb 45f 48f
7:42 5 10 mph 1019.6mb 45f 48f
7:36 9 14 mph 1019.7mb 45f 48f
7:30 7 10 mph - 45f 48f
7:24 6 8 mph - 45f 48f
7:18 6 13 mph 1019.6mb 45f 48f
7:12 8 11 mph 1019.7mb 45f 48f
7:06 7 11 mph 1019.7mb 45f 48f
7:00 8 13 mph 1019.7mb 45f 48f
6:54 7 11 mph 1019.6mb 45f 48f
6:48 7 9 mph 1019.5mb 45f 48f
6:42 6 8 mph 1019.5mb 45f 48f
6:36 5 8 mph 1019.7mb 45f 48f
6:30 3 7 mph 1019.9mb 45f 48f
6:24 7 11 mph 1020mb 45f 48f
6:18 5 7 mph 1020.3mb 45f 48f
6:12 3 8 mph 1020.7mb 45f 48f
6:06 5 8 mph 1020.8mb 45f 48f
6:00 7 10 mph 1020.9mb 45f 48f
5:54 2 5 mph 1020.9mb 45f 48f
5:48 3 6 mph 1021mb 45f 48f
5:42 3 8 mph 1021.2mb 45f 48f
5:36 6 10 mph 1021.3mb 45f 49f
5:30 5 9 mph 1021.3mb 45f 49f
5:24 6 8 mph 1021.4mb 45f 49f
5:18 6 9 mph 1021.4mb 45f 49f
5:12 6 9 mph 1021.4mb 45f 49f
5:06 3 7 mph 1021.5mb 45f 50f
5:00 3 9 mph 1021.5mb 45f 50f
4:54 2 5 mph 1021.6mb 45f 50f
4:48 3 6 mph 1021.5mb 45f 50f
4:42 2 6 mph 1021.5mb 45f 49f
4:36 5 7 mph 1021.5mb 45f 49f
4:30 5 7 mph 1021.5mb 45f 49f
4:24 3 6 mph 1021.4mb 45f 48f
4:18 6 10 mph 1021.3mb 45f 48f
4:12 3 8 mph 1021mb 45f 48f
4:06 7 8 mph 1021.1mb 45f 49f
4:00 5 8 mph 1021.1mb 45f 49f
3:54 5 9 mph 1021.1mb 45f 49f
3:48  -  5 mph 1021.2mb 45f 49f
3:42 2 5 mph 1021.3mb 45f 49f
3:36 3 6 mph 1021.5mb 45f 49f
3:30 3 10 mph 1021.4mb 45f 49f
3:24 3 10 mph 1021.4mb 45f 49f
3:18 6 10 mph 1021.3mb 45f 50f
3:12 6 10 mph 1021.4mb 45f 49f
3:06 3 8 mph 1021.5mb 45f 49f
3:00 3 7 mph 1021.5mb 45f 49f
2:54 5 8 mph 1021.6mb 45f 49f
2:48 3 9 mph 1021.6mb 45f 49f
2:42 6 7 mph 1021.7mb 45f 49f
2:36 3 6 mph 1021.6mb 45f 48f
2:30 1 3 mph 1021.7mb 45f 49f
2:24 1 3 mph 1022mb 45f 49f
2:18  -  mph - - 49f
2:12  -  mph - - 49f
2:06  -  mph - - 49f
2:00  -  mph - - 49f
1:54  -  mph - - 50f
1:48  -  mph - 45f 49f
1:42  -  mph - 45f 49f
1:36  -  mph - 45f 49f
1:30 3 7 mph 1022.3mb 45f 49f
1:24 3 7 mph 1022.4mb 45f 48f
1:18 6 10 mph 1022.7mb 45f 48f
1:12 1 8 mph 1022.8mb 45f 49f
1:06 6 9 mph 1022.5mb 45f 49f
1:00 6 9 mph 1022.4mb 45f 48f
12:54 2 6 mph 1022.5mb 45f 49f
12:48 3 6 mph 1022.9mb 45f 49f
12:42 2 10 mph 1023mb 45f 48f
12:36 8 10 mph 1023.1mb 45f 48f
12:30 9 11 mph 1023.2mb 45f 48f
12:24 6 8 mph 1023.3mb 45f 48f
12:18 5 7 mph 1023.3mb 45f 48f
12:12 5 9 mph 1023.4mb 45f 48f
12:06 6 8 mph 1023.5mb 45f 48f
12:00 6 8 mph 1023.7mb 45f 48f
mié 02/10 11:54 5 8 mph 1023.8mb 45f 48f
11:48 2 5 mph 1024mb 45f 48f
11:42 2 3 mph 1024.2mb 45f 48f
11:36  -  2 mph 1024.4mb 45f 48f
11:30 2 7 mph 1024.6mb 45f 48f
11:24 3 6 mph 1024.7mb 45f 48f
11:18 3 7 mph 1024.8mb 45f 48f
11:12 3 6 mph 1024.7mb 45f 48f
11:06 1 10 mph 1024.8mb 45f 48f
11:00 3 8 mph 1024.7mb 45f 48f
10:54 3 5 mph 1024.7mb 45f 47f
10:48 2 5 mph 1024.7mb 45f 47f
10:42 2 6 mph 1024.8mb 45f 47f
10:36 6 7 mph 1024.9mb 45f 47f
10:30 2 6 mph 1024.8mb 45f 48f
10:24 5 8 mph 1024.7mb 45f 48f
10:18 3 5 mph 1024.8mb 45f 49f
10:12 2 6 mph 1024.9mb 45f 48f
10:06 3 7 mph 1024.9mb 45f 48f
10:00 5 7 mph 1024.9mb 45f 49f
9:48 2 3 mph 1025.1mb 45f 50f
9:42  -  2 mph 1025.1mb 45f 49f
9:36 3 5 mph 1025mb 45f 49f
9:30 1 3 mph 1025mb 45f 49f
9:24 2 3 mph 1025.2mb 45f 49f
9:18 2 3 mph - - -
9:12 1 3 mph 1025.3mb 45f 49f
9:06 2 3 mph 1025.3mb 45f 49f
9:00 2 5 mph 1025.4mb 45f 49f
8:54 5 7 mph 1025.5mb 45f 49f
8:48 2 3 mph 1025.6mb 45f -
8:42 2 3 mph 1025.6mb 45f 49f
8:36 3
mph
1025.7mb 45f 49f
8:30 2 7 mph 1025.6mb 45f 49f
8:24 5 7 mph 1025.6mb 45f 49f
8:18 5 6 mph - 45f 49f
8:12 5 6 mph - 45f 49f
8:06 5 6 mph - 45f 49f
8:00 1 2 mph 1025.8mb 45f 50f
7:54 3 7 mph 1025.7mb 45f 50f
7:48 2 5 mph 1025.8mb 45f 49f
7:42 3 5 mph 1025.9mb 45f 49f
7:36 3 6 mph 1025.9mb 45f 49f
7:30 6 8 mph 1025.9mb 45f 50f
7:24 5 7 mph 1026mb 45f 51f
7:18 6 7 mph 1026.3mb 45f 50f
7:12 5
mph
1026.2mb 45f 51f
7:06 5
mph
1026.3mb 45f 51f
7:00  -  mph 1026.1mb 45f 52f
6:54  -  mph 1026.1mb 45f 50f
6:48 2 6 mph - 45f 52f
6:42 5 6 mph - 45f 53f
6:36 6 7 mph - 45f 53f
6:30  -  mph 1026.3mb 45f 53f
6:24  -  mph 1026.3mb 45f 53f
6:18 3 6 mph 1026.3mb 45f 53f
6:12 5 6 mph 1026.3mb 45f 53f
6:06 5 6 mph 1026.2mb 45f 53f
6:00  -  mph - 45f 52f
5:54  -  mph - 45f 52f
5:48  -  mph - - 53f
5:42  -  mph - - 53f
5:36  -  mph - - 53f
5:30 8 10 mph 1026.5mb 45f 53f
5:24 8 13 mph 1026.5mb 45f 53f
5:18 8 9 mph 1026.5mb 45f 53f
5:12 6 10 mph 1026.5mb 45f 53f
5:06 7 11 mph 1026.5mb 45f 53f
5:00 8 10 mph 1026.3mb 45f 53f
4:54 8 11 mph 1026.3mb 45f 53f
4:48 8 10 mph 1026.1mb 45f 53f
4:42 7 13 mph 1025.9mb 45f 54f
4:36 10 13 mph 1025.7mb 45f 54f
4:30  -  mph 1025.7mb 45f 54f
4:24  -  mph 1025.8mb 45f 53f
4:18  -  mph 1025.7mb 45f 53f
4:12  -  mph 1025.7mb 45f 53f
4:06  -  mph 1025.6mb 45f 53f
4:00  -  mph 1025.6mb 45f 54f
3:54  -  mph 1025.6mb 45f 54f
3:48 11 17 mph 1025.6mb 45f -
3:42 9 16 mph 1025.6mb 45f -
3:36 10 15 mph 1025.6mb 45f -
3:30  -  mph 1025.7mb 45f 54f
3:24  -  mph 1025.8mb 45f 53f
3:18  -  mph 1025.6mb 45f 53f
3:12  -  mph 1025.5mb 45f 54f
3:06  -  mph 1025.4mb 45f 55f
3:00  -  mph 1025.3mb 45f 55f
2:54  -  mph 1025.2mb 45f 55f
2:48 13 21 mph - 45f 55f
2:42 9 15 mph - 45f 55f
2:36 7 15 mph - 45f 55f
2:30 9 15 mph 1024.7mb 45f -
2:24 9 18 mph 1024.5mb 45f -
2:18  -  mph 1024.3mb 45f 55f
2:12  -  mph 1024.4mb 45f 54f
2:06  -  mph 1024.5mb 45f 53f
2:00 8 10 mph - 45f 54f
1:54 6 13 mph - 45f 53f
1:48 7 14 mph 1024.4mb 45f 54f
1:42 9 17 mph 1024.4mb 45f 55f
1:36 7 14 mph 1024.4mb 45f 54f
1:30 7 14 mph 1024.4mb 45f 54f
1:24 8 13 mph 1024.5mb 45f 54f
1:18 5 6 mph 1024.5mb 45f 52f
1:12 6 7 mph 1024.5mb 45f 51f
1:06 3 8 mph 1024.4mb 45f 50f
1:00 6 9 mph 1024.3mb 45f 50f
12:54 5 9 mph 1024.1mb 45f 51f
12:48 6 9 mph 1024.2mb 45f 53f
12:42 7 14 mph 1024.4mb 45f 53f
12:36 11 18 mph 1024.3mb 45f 56f
12:30 9 16 mph 1024.2mb 45f 56f
12:24 13 17 mph 1024.2mb 45f 56f
12:18 5 10 mph 1024.2mb 45f 55f
12:12 6 11 mph 1024.2mb 45f 55f
12:06 3 7 mph 1024.3mb 45f 51f
12:00  -  3 mph 1024.3mb 45f 50f
11:54 1 3 mph 1024.4mb 45f 50f
11:48 3 6 mph 1024.4mb 45f 49f
11:42  -  5 mph 1024.3mb 45f 50f
11:36 2 5 mph 1024.2mb 45f 50f
11:30 1 8 mph 1024.3mb 45f 49f
11:24 5 7 mph 1024.2mb 45f 49f
11:18 1 2 mph 1024.4mb 45f 50f
11:12 2 3 mph 1024.3mb 45f 49f
11:06 1 5 mph 1024.3mb 45f 49f
11:00 3 5 mph 1024mb 45f 49f
10:54 5 8 mph 1023.7mb 45f 51f
10:48 3 6 mph 1023.6mb 45f 50f
10:42  -  2 mph 1023.6mb 45f 49f
10:36 1 2 mph 1023.7mb 45f 48f
10:30  -  2 mph 1023.7mb 45f 48f
10:24 2 3 mph 1023.6mb 45f 47f
10:18 2
mph
1023.5mb 45f 47f
10:12 2 3 mph 1023.4mb 45f 48f
10:06 2 7 mph 1023.5mb 45f 48f
10:00 2 6 mph 1023.2mb 45f 47f
9:54  -  2 mph 1023.1mb 45f 47f
9:48  -  5 mph 1023mb 45f 46f
9:42 2 6 mph 1022.9mb 45f 47f
9:36 6
mph
1022.8mb 45f 48f
9:30 5 6 mph 1022.7mb 45f 47f
9:24 3 5 mph 1022.4mb 45f 47f
9:18 1 5 mph 1022.3mb 45f 47f
9:12 3 7 mph 1022.2mb 45f 46f
9:06 5 7 mph 1022.4mb 45f 46f
9:00 2 7 mph 1022.4mb 45f 46f
8:54 8 10 mph 1022.4mb 45f 46f
8:48 7 9 mph 1022.3mb 45f 46f
8:42 6 11 mph 1022.1mb 45f 47f
8:36 9 11 mph 1021.9mb 45f 49f
8:30 9 11 mph 1021.9mb 45f 49f
8:24 8 11 mph 1021.9mb 45f 49f
8:18 8 13 mph 1022mb 45f 48f
8:12 7 8 mph 1022mb 45f 48f
8:06 5 7 mph 1022mb 45f 47f
8:00 3 6 mph 1022.1mb 45f 46f
7:54 1 2 mph 1022.2mb 45f 47f
7:48  -  6 mph 1022mb 45f 48f
7:42 2 7 mph 1021.7mb 45f 48f
7:36 8 10 mph 1021.2mb 45f 48f
7:30 5 6 mph 1020.9mb 45f 47f
7:24 1 2 mph 1020.8mb 45f 46f
7:18 3
mph
1020.9mb 45f 46f
7:12 1 2 mph 1020.8mb 45f 46f
7:06  -  2 mph 1020.8mb 45f 47f
7:00  -  2 mph 1020.9mb 45f 47f
6:54  -  2 mph 1020.9mb 45f 47f
6:48 1 3 mph 1020.9mb 45f 47f
6:42  -  3 mph 1020.6mb 45f 47f
6:36 3 6 mph 1020.5mb 45f 47f
6:30 1 5 mph 1020.4mb 45f 47f
6:24 2 3 mph 1020.3mb 45f 47f
6:18 1 5 mph 1020.5mb 45f 46f
6:12 3 6 mph 1020.3mb 45f 46f
6:06 3 6 mph 1020.1mb 45f 46f
6:00 3 5 mph 1020mb 45f 46f